createdAt,value
2023-05-14T00:00:16.848Z,100.00
2023-05-14T00:05:09.978Z,100.00
2023-05-14T00:10:02.161Z,100.00
2023-05-14T00:14:54.073Z,100.00
2023-05-14T00:19:45.990Z,100.00
2023-05-14T00:24:37.669Z,100.00
2023-05-14T00:29:29.684Z,100.00
2023-05-14T00:34:21.435Z,100.00
2023-05-14T00:39:14.340Z,100.00
2023-05-14T00:44:06.095Z,100.00
2023-05-14T00:48:59.356Z,100.00
2023-05-14T00:53:52.352Z,100.00
2023-05-14T00:58:44.126Z,100.00
2023-05-14T01:03:36.537Z,100.00
2023-05-14T01:08:39.039Z,100.00
2023-05-14T01:14:01.095Z,100.00
2023-05-14T01:18:54.439Z,100.00
2023-05-14T01:23:46.226Z,100.00
2023-05-14T01:28:38.623Z,100.00
2023-05-14T01:33:33.920Z,100.00
2023-05-14T01:38:30.217Z,100.00
2023-05-14T01:43:23.175Z,100.00
2023-05-14T01:48:15.341Z,100.00
2023-05-14T01:53:07.149Z,100.00
2023-05-14T01:57:59.000Z,100.00
2023-05-14T02:02:50.748Z,100.00
2023-05-14T02:07:42.470Z,100.00
2023-05-14T02:12:34.166Z,100.00
2023-05-14T02:17:26.525Z,100.00
2023-05-14T02:22:18.358Z,100.00
2023-05-14T02:27:12.584Z,100.00
2023-05-14T02:32:04.845Z,100.00
2023-05-14T02:36:56.618Z,100.00
2023-05-14T02:41:48.303Z,100.00
2023-05-14T02:46:40.098Z,100.00
2023-05-14T02:51:31.844Z,100.00
2023-05-14T02:56:23.531Z,100.00
2023-05-14T03:01:15.298Z,100.00
2023-05-14T03:06:07.596Z,100.00
2023-05-14T03:10:59.352Z,100.00
2023-05-14T03:15:54.581Z,100.00
2023-05-14T03:20:46.373Z,100.00
2023-05-14T03:25:38.073Z,100.00
2023-05-14T03:30:29.926Z,100.00
2023-05-14T03:35:21.733Z,100.00
2023-05-14T03:40:13.541Z,100.00
2023-05-14T03:45:06.289Z,100.00
2023-05-14T03:49:58.718Z,100.00
2023-05-14T03:54:50.480Z,100.00
2023-05-14T03:59:42.155Z,100.00
2023-05-14T04:04:33.984Z,100.00
2023-05-14T04:09:25.742Z,100.00
2023-05-14T04:14:17.448Z,100.00
2023-05-14T04:19:09.159Z,100.00
2023-05-14T04:24:00.917Z,100.00
2023-05-14T04:28:52.787Z,100.00
2023-05-14T04:33:44.488Z,100.00
2023-05-14T04:38:36.192Z,100.00
2023-05-14T04:43:27.877Z,100.00
2023-05-14T04:48:19.583Z,100.00
2023-05-14T04:53:11.534Z,100.00
2023-05-14T04:58:03.667Z,100.00
2023-05-14T05:02:55.642Z,100.00
2023-05-14T05:07:47.693Z,100.00
2023-05-14T05:12:39.456Z,100.00
2023-05-14T05:17:31.485Z,100.00
2023-05-14T05:22:24.226Z,100.00
2023-05-14T05:27:15.956Z,100.00
2023-05-14T05:32:08.103Z,100.00
2023-05-14T05:36:59.774Z,100.00
2023-05-14T05:41:51.517Z,100.00
2023-05-14T05:46:43.278Z,100.00
2023-05-14T05:51:34.987Z,100.00
2023-05-14T05:56:26.745Z,100.00
2023-05-14T06:01:18.520Z,100.00
2023-05-14T06:06:10.185Z,100.00
2023-05-14T06:11:01.881Z,100.00
2023-05-14T06:15:53.593Z,100.00
2023-05-14T06:20:45.272Z,100.00
2023-05-14T06:25:36.944Z,100.00
2023-05-14T06:30:28.678Z,100.00
2023-05-14T06:35:20.480Z,100.00
2023-05-14T06:40:15.690Z,100.00
2023-05-14T06:45:07.991Z,100.00
2023-05-14T06:50:01.764Z,100.00
2023-05-14T06:54:53.443Z,100.00
2023-05-14T06:59:45.138Z,100.00
2023-05-14T07:04:36.842Z,100.00
2023-05-14T07:09:28.695Z,100.00
2023-05-14T07:14:20.529Z,100.00
2023-05-14T07:19:12.618Z,100.00
2023-05-14T07:24:05.264Z,100.00
2023-05-14T07:28:57.061Z,100.00
2023-05-14T07:33:48.799Z,100.00
2023-05-14T07:38:40.577Z,100.00
2023-05-14T07:43:32.266Z,100.00
2023-05-14T07:48:23.987Z,100.00
2023-05-14T07:53:15.739Z,100.00
2023-05-14T07:58:07.657Z,100.00
2023-05-14T08:02:59.476Z,100.00
2023-05-14T08:07:51.382Z,100.00
2023-05-14T08:12:43.057Z,100.00
2023-05-14T08:17:34.871Z,100.00
2023-05-14T08:22:26.616Z,98.62
2023-05-14T08:27:18.274Z,100.00
2023-05-14T08:32:22.114Z,99.57
2023-05-14T08:37:14.820Z,96.18
2023-05-14T08:42:07.990Z,100.00
2023-05-14T08:47:00.775Z,100.00
2023-05-14T08:51:53.002Z,100.00
2023-05-14T08:56:50.510Z,96.30
2023-05-14T09:01:48.460Z,97.19
2023-05-14T09:06:43.328Z,98.30
2023-05-14T09:11:41.048Z,97.02
2023-05-14T09:16:32.997Z,95.57
2023-05-14T09:21:24.852Z,96.89
2023-05-14T09:26:18.549Z,96.90
2023-05-14T09:31:10.302Z,95.15
2023-05-14T09:36:02.582Z,97.03
2023-05-14T09:40:54.242Z,95.25
2023-05-14T09:45:45.991Z,90.60
2023-05-14T09:50:46.484Z,90.32
2023-05-14T09:55:39.105Z,85.54
2023-05-14T10:00:35.498Z,84.84
2023-05-14T10:05:28.765Z,83.24
2023-05-14T10:10:26.877Z,83.81
2023-05-14T10:15:30.020Z,82.23
2023-05-14T10:20:24.983Z,80.06
2023-05-14T10:25:17.403Z,77.75
2023-05-14T10:30:12.883Z,80.59
2023-05-14T10:35:22.731Z,77.94
2023-05-14T10:40:14.768Z,76.04
2023-05-14T10:45:15.192Z,76.98
2023-05-14T10:50:11.215Z,77.84
2023-05-14T10:55:09.057Z,75.88
2023-05-14T11:00:02.477Z,75.69
2023-05-14T11:05:00.549Z,75.70
2023-05-14T11:09:53.675Z,80.73
2023-05-14T11:14:46.951Z,79.31
2023-05-14T11:19:38.613Z,76.84
2023-05-14T11:24:30.459Z,75.75
2023-05-14T11:29:22.216Z,76.14
2023-05-14T11:34:14.183Z,75.78
2023-05-14T11:39:05.879Z,75.58
2023-05-14T11:43:58.661Z,72.41
2023-05-14T11:48:50.910Z,73.41
2023-05-14T11:53:42.591Z,73.71
2023-05-14T11:58:34.296Z,75.33
2023-05-14T12:03:29.228Z,73.90
2023-05-14T12:08:31.189Z,74.48
2023-05-14T12:13:27.542Z,75.64
2023-05-14T12:18:24.547Z,77.53
2023-05-14T12:23:17.196Z,74.73
2023-05-14T12:28:19.765Z,74.88
2023-05-14T12:33:11.578Z,73.31
2023-05-14T12:38:04.134Z,71.94
2023-05-14T12:42:56.790Z,68.30
2023-05-14T12:47:48.785Z,67.94
2023-05-14T12:52:40.752Z,67.30
2023-05-14T12:57:32.468Z,71.08
2023-05-14T13:02:24.239Z,71.58
2023-05-14T13:07:15.924Z,71.17
2023-05-14T13:12:08.088Z,71.00
2023-05-14T13:16:59.845Z,69.81
2023-05-14T13:21:51.652Z,69.35
2023-05-14T13:26:44.823Z,69.88
2023-05-14T13:31:36.877Z,70.87
2023-05-14T13:36:28.754Z,70.85
2023-05-14T13:41:21.567Z,70.48
2023-05-14T13:46:13.293Z,72.36
2023-05-14T13:51:05.007Z,72.72
2023-05-14T13:55:58.252Z,71.23
2023-05-14T14:00:50.306Z,70.83
2023-05-14T14:05:42.075Z,69.71
2023-05-14T14:10:33.825Z,68.11
2023-05-14T14:15:25.741Z,69.36
2023-05-14T14:20:17.725Z,70.16
2023-05-14T14:25:10.884Z,70.92
2023-05-14T14:30:02.811Z,70.12
2023-05-14T14:34:54.646Z,67.97
2023-05-14T14:39:46.346Z,67.76
2023-05-14T14:44:38.023Z,68.10
2023-05-14T14:49:30.670Z,67.21
2023-05-14T14:54:22.332Z,69.15
2023-05-14T14:59:14.002Z,68.28
2023-05-14T15:04:05.871Z,68.39
2023-05-14T15:08:57.551Z,68.66
2023-05-14T15:13:49.236Z,66.52
2023-05-14T15:18:40.946Z,66.71
2023-05-14T15:23:32.664Z,65.56
2023-05-14T15:28:24.335Z,64.98
2023-05-14T15:33:19.354Z,65.31
2023-05-14T15:38:11.443Z,66.32
2023-05-14T15:43:03.425Z,66.00
2023-05-14T15:47:55.235Z,66.43
2023-05-14T15:52:47.936Z,66.22
2023-05-14T15:57:39.666Z,67.06
2023-05-14T16:02:33.143Z,67.77
2023-05-14T16:07:25.076Z,68.74
2023-05-14T16:12:16.786Z,75.69
2023-05-14T16:17:08.983Z,92.84
2023-05-14T16:22:00.663Z,100.00
2023-05-14T16:26:52.366Z,100.00
2023-05-14T16:31:44.173Z,100.00
2023-05-14T16:36:35.945Z,100.00
2023-05-14T16:41:28.344Z,100.00
2023-05-14T16:46:20.234Z,100.00
2023-05-14T16:51:12.002Z,100.00
2023-05-14T16:56:04.010Z,100.00
2023-05-14T17:00:55.757Z,100.00
2023-05-14T17:05:47.559Z,100.00
2023-05-14T17:10:39.218Z,100.00
2023-05-14T17:15:30.950Z,100.00
2023-05-14T17:20:22.727Z,100.00
2023-05-14T17:25:14.451Z,100.00
2023-05-14T17:30:07.100Z,100.00
2023-05-14T17:34:58.862Z,100.00
2023-05-14T17:39:50.935Z,100.00
2023-05-14T17:44:42.706Z,100.00
2023-05-14T17:49:35.027Z,100.00
2023-05-14T17:54:26.719Z,100.00
2023-05-14T17:59:18.497Z,100.00
2023-05-14T18:04:10.357Z,100.00
2023-05-14T18:09:02.144Z,100.00
2023-05-14T18:13:53.804Z,100.00
2023-05-14T18:18:45.548Z,100.00
2023-05-14T18:23:37.217Z,100.00
2023-05-14T18:28:28.903Z,100.00
2023-05-14T18:33:20.658Z,100.00
2023-05-14T18:38:13.550Z,100.00
2023-05-14T18:43:05.364Z,100.00
2023-05-14T18:47:57.237Z,100.00
2023-05-14T18:52:49.007Z,100.00
2023-05-14T18:57:40.698Z,100.00
2023-05-14T19:02:32.453Z,100.00
2023-05-14T19:07:24.313Z,100.00
2023-05-14T19:12:16.405Z,100.00
2023-05-14T19:17:08.289Z,100.00
2023-05-14T19:22:00.045Z,100.00
2023-05-14T19:26:51.786Z,100.00
2023-05-14T19:31:43.502Z,100.00
2023-05-14T19:36:35.429Z,100.00
2023-05-14T19:41:27.627Z,100.00
2023-05-14T19:46:19.451Z,100.00
2023-05-14T19:51:11.525Z,100.00
2023-05-14T19:56:03.416Z,100.00
2023-05-14T20:00:57.104Z,100.00
2023-05-14T20:05:49.339Z,100.00
2023-05-14T20:10:41.431Z,100.00
2023-05-14T20:15:33.480Z,100.00
2023-05-14T20:20:25.518Z,100.00
2023-05-14T20:25:17.415Z,100.00
2023-05-14T20:30:09.533Z,100.00
2023-05-14T20:35:02.270Z,100.00
2023-05-14T20:39:54.125Z,100.00
2023-05-14T20:44:48.157Z,100.00
2023-05-14T20:49:39.845Z,100.00
2023-05-14T20:54:31.794Z,100.00
2023-05-14T20:59:23.477Z,100.00
2023-05-14T21:04:15.481Z,100.00
2023-05-14T21:09:07.422Z,100.00
2023-05-14T21:13:59.104Z,100.00
2023-05-14T21:18:50.805Z,100.00
2023-05-14T21:23:42.526Z,100.00
2023-05-14T21:28:34.222Z,100.00
2023-05-14T21:33:25.936Z,100.00
2023-05-14T21:38:17.766Z,100.00
2023-05-14T21:43:10.511Z,100.00
2023-05-14T21:48:02.363Z,100.00
2023-05-14T21:52:54.077Z,100.00
2023-05-14T21:57:45.915Z,100.00
2023-05-14T22:02:37.648Z,100.00
2023-05-14T22:07:29.478Z,100.00
2023-05-14T22:12:21.162Z,100.00
2023-05-14T22:17:12.859Z,100.00
2023-05-14T22:22:04.670Z,100.00
2023-05-14T22:26:56.401Z,100.00
2023-05-14T22:31:48.348Z,100.00
2023-05-14T22:36:40.125Z,100.00
2023-05-14T22:41:31.817Z,100.00
2023-05-14T22:46:23.608Z,100.00
2023-05-14T22:51:16.228Z,100.00
2023-05-14T22:56:07.986Z,100.00
2023-05-14T23:00:59.687Z,100.00
2023-05-14T23:05:51.975Z,100.00
2023-05-14T23:10:43.675Z,100.00
2023-05-14T23:15:35.394Z,100.00
2023-05-14T23:20:27.111Z,100.00
2023-05-14T23:25:18.812Z,100.00
2023-05-14T23:30:11.231Z,100.00
2023-05-14T23:35:03.232Z,100.00
2023-05-14T23:39:55.091Z,100.00
2023-05-14T23:44:46.845Z,100.00
2023-05-14T23:49:40.634Z,100.00
2023-05-14T23:54:32.359Z,100.00
2023-05-14T23:59:24.040Z,100.00
